Time;durP1;ratioP1;P1;durP2;ratioP2;P2;SDS_P1;SDS_P2;PMS_P1;PMS_P2;Temp;Humidity;BMP_temperature;BMP_pressure;BME280_temperature;BME280_humidity;BME280_pressure;Samples;Min_cycle;Max_cycle;Signal;HPM_P1;HPM_P2
2022/07/11 00:00:19;;;;;;;7.50;2.30;;;;;;;12.62;75.28;98508.29;105677;1285;22568;-85
2022/07/11 00:03:06;;;;;;;4.70;2.00;;;;;;;12.60;75.58;98511.59;105545;1284;138052;-85
2022/07/11 00:05:36;;;;;;;6.90;1.80;;;;;;;12.60;75.38;98509.41;105266;1286;22641;-86
2022/07/11 00:08:06;;;;;;;4.80;1.80;;;;;;;12.63;75.45;98510.58;105603;1284;24238;-85
2022/07/11 00:10:34;;;;;;;6.00;1.90;;;;;;;12.66;75.29;98511.61;105531;1284;137930;-85
2022/07/11 00:13:01;;;;;;;8.40;2.50;;;;;;;12.71;75.39;98510.78;105299;1287;24259;-85
2022/07/11 00:15:28;;;;;;;5.60;1.90;;;;;;;12.74;75.04;98510.92;105400;1287;138315;-84
2022/07/11 00:17:54;;;;;;;5.50;1.50;;;;;;;12.76;75.06;98509.41;106362;1286;22610;-85
2022/07/11 00:20:25;;;;;;;5.50;2.00;;;;;;;12.78;75.31;98506.47;106316;1284;22583;-85
2022/07/11 00:22:52;;;;;;;7.60;1.70;;;;;;;12.80;75.24;98510.55;106055;1285;138619;-85
2022/07/11 00:25:20;;;;;;;3.60;1.70;;;;;;;12.82;75.36;98515.20;105360;1286;23031;-84
2022/07/11 00:27:47;;;;;;;4.50;2.10;;;;;;;12.83;75.33;98512.86;105268;1286;138286;-85
2022/07/11 00:30:16;;;;;;;3.80;2.00;;;;;;;12.85;75.61;98515.60;105616;1285;22576;-85
2022/07/11 00:32:43;;;;;;;3.00;1.60;;;;;;;12.85;75.69;98511.69;105819;1284;25514;-86
2022/07/11 00:35:11;;;;;;;2.40;1.40;;;;;;;12.82;75.55;98512.08;105593;1286;138313;-86
2022/07/11 00:37:38;;;;;;;8.80;1.90;;;;;;;12.78;75.23;98509.04;106034;1284;22762;-85
2022/07/11 00:40:06;;;;;;;4.30;1.80;;;;;;;12.72;75.50;98505.48;106139;1284;138014;-86
2022/07/11 00:42:34;;;;;;;4.30;1.70;;;;;;;12.68;75.55;98505.00;105947;1284;22566;-86
2022/07/11 00:45:01;;;;;;;4.80;1.70;;;;;;;12.62;75.32;98506.41;105672;1284;137927;-85
2022/07/11 00:47:30;;;;;;;5.10;2.00;;;;;;;12.55;75.93;98504.54;106226;1283;25371;-85
2022/07/11 00:49:57;;;;;;;4.50;1.70;;;;;;;12.52;76.01;98509.05;105723;1286;22563;-85
2022/07/11 00:52:24;;;;;;;6.30;1.90;;;;;;;12.52;75.95;98509.98;105378;1287;137939;-85
2022/07/11 00:54:54;;;;;;;5.10;1.90;;;;;;;12.53;76.37;98514.61;105683;1284;22582;-85
2022/07/11 00:57:22;;;;;;;8.70;3.10;;;;;;;12.53;76.53;98509.06;105936;1284;137815;-85
2022/07/11 00:59:55;;;;;;;4.80;2.40;;;;;;;12.55;76.47;98515.91;105395;1287;25578;-85
2022/07/11 01:02:27;;;;;;;4.60;2.20;;;;;;;12.53;76.63;98515.23;106005;1284;22570;-86
2022/07/11 01:04:56;;;;;;;3.30;2.00;;;;;;;12.51;76.83;98514.55;105481;1283;138855;-85
2022/07/11 01:07:30;;;;;;;6.50;2.70;;;;;;;12.49;76.74;98516.61;105984;1284;24285;-85
2022/07/11 01:09:57;;;;;;;3.90;2.40;;;;;;;12.50;76.61;98519.27;105108;1284;138446;-84
2022/07/11 01:12:34;;;;;;;7.30;2.50;;;;;;;12.50;77.06;98520.45;105283;1286;22544;-85
2022/07/11 01:15:05;;;;;;;3.70;2.30;;;;;;;12.52;76.98;98516.80;105467;1285;138251;-85
2022/07/11 01:17:32;;;;;;;5.70;2.20;;;;;;;12.51;77.08;98516.95;105750;1285;22870;-85
2022/07/11 01:20:00;;;;;;;9.00;2.20;;;;;;;12.52;77.25;98518.77;106061;1285;24234;-84
2022/07/11 01:22:36;;;;;;;4.60;2.40;;;;;;;12.55;76.96;98517.66;105484;1287;137905;-84
2022/07/11 01:25:07;;;;;;;4.80;1.80;;;;;;;12.58;77.07;98526.04;106102;1285;23309;-85
2022/07/11 01:27:35;;;;;;;5.10;2.10;;;;;;;12.55;76.84;98521.73;105340;1287;138010;-84
2022/07/11 01:30:05;;;;;;;5.90;2.20;;;;;;;12.53;76.72;98518.67;106736;1285;22601;-85
2022/07/11 01:32:56;;;;;;;5.50;2.00;;;;;;;12.49;76.87;98513.71;105577;1288;138665;-84
2022/07/11 01:35:28;;;;;;;4.20;1.90;;;;;;;12.51;77.01;98519.74;105593;1288;22557;-84
2022/07/11 01:37:56;;;;;;;4.00;2.20;;;;;;;12.48;77.02;98519.43;105447;1290;22603;-85
2022/07/11 01:40:27;;;;;;;3.50;1.80;;;;;;;12.46;77.21;98521.27;105154;1290;137817;-85
2022/07/11 01:42:54;;;;;;;5.30;2.00;;;;;;;12.42;76.91;98520.08;105680;1288;23402;-85
2022/07/11 01:45:21;;;;;;;6.30;2.20;;;;;;;12.39;77.11;98517.27;106019;1288;138935;-86
2022/07/11 01:47:52;;;;;;;3.40;2.00;;;;;;;12.39;77.39;98515.89;105606;1288;22796;-84
2022/07/11 01:50:26;;;;;;;3.10;1.90;;;;;;;12.43;77.52;98513.58;105272;1289;22656;-85
2022/07/11 01:52:55;;;;;;;3.40;2.00;;;;;;;12.47;77.12;98510.90;105192;1289;138820;-85
2022/07/11 01:55:25;;;;;;;6.70;2.10;;;;;;;12.49;77.04;98507.64;106079;1289;30575;-84
2022/07/11 01:57:52;;;;;;;6.90;2.30;;;;;;;12.49;76.95;98508.56;105567;1289;138569;-85
2022/07/11 02:00:24;;;;;;;3.60;2.00;;;;;;;12.46;77.10;98500.67;105368;1288;25430;-84
2022/07/11 02:02:51;;;;;;;10.10;2.50;;;;;;;12.47;76.90;98504.24;105592;1288;138442;-85
2022/07/11 02:05:18;;;;;;;4.30;2.00;;;;;;;12.46;76.93;98506.91;105648;1286;22737;-84
2022/07/11 02:10:29;;;;;;;4.00;2.10;;;;;;;12.48;77.23;98506.65;105566;1287;138320;-84
2022/07/11 02:13:01;;;;;;;6.20;2.20;;;;;;;12.47;77.12;98507.07;105682;1287;25261;-85
2022/07/11 02:15:30;;;;;;;7.10;2.30;;;;;;;12.46;77.11;98508.39;105910;1284;138733;-83
2022/07/11 02:17:57;;;;;;;4.70;2.20;;;;;;;12.47;77.49;98508.71;105870;1284;22604;-84
2022/07/11 02:20:25;;;;;;;7.40;2.80;;;;;;;12.47;77.16;98509.64;105697;1284;22661;-85
2022/07/11 02:22:59;;;;;;;4.60;2.20;;;;;;;12.47;77.45;98507.77;105604;1284;137894;-84
2022/07/11 02:25:28;;;;;;;4.10;2.50;;;;;;;12.49;77.56;98509.39;105812;1283;24293;-84
2022/07/11 02:27:56;;;;;;;5.20;2.40;;;;;;;12.51;77.82;98514.34;105638;1287;138620;-84
2022/07/11 02:30:24;;;;;;;3.90;1.90;;;;;;;12.55;77.61;98511.75;105763;1284;22359;-84
2022/07/11 02:32:55;;;;;;;4.80;2.20;;;;;;;12.56;77.45;98514.00;105284;1285;137809;-84
2022/07/11 02:35:22;;;;;;;7.10;3.30;;;;;;;12.56;77.67;98511.11;105945;1286;22655;-84
2022/07/11 02:37:54;;;;;;;4.60;2.70;;;;;;;12.55;77.45;98515.64;106177;1287;24237;-83
2022/07/11 02:40:21;;;;;;;9.50;3.00;;;;;;;12.54;77.51;98509.98;105897;1284;137721;-84
2022/07/11 02:42:57;;;;;;;6.20;2.20;;;;;;;12.56;77.51;98512.48;106052;1283;22566;-85
2022/07/11 02:45:26;;;;;;;6.50;2.40;;;;;;;12.57;77.54;98517.45;105876;1287;138284;-83
2022/07/11 02:47:56;;;;;;;4.10;2.60;;;;;;;12.57;77.64;98517.57;105918;1287;25426;-85
2022/07/11 02:50:26;;;;;;;7.80;2.50;;;;;;;12.61;77.73;98515.86;105286;1286;25274;-85
2022/07/11 02:52:54;;;;;;;10.30;3.30;;;;;;;12.61;77.34;98516.73;105375;1287;137939;-84
2022/07/11 02:55:31;;;;;;;9.90;2.50;;;;;;;12.60;77.81;98515.04;106003;1284;22720;-84
2022/07/11 02:58:02;;;;;;;4.30;2.40;;;;;;;12.61;77.39;98511.88;105437;1287;138604;-84
2022/07/11 03:00:30;;;;;;;5.20;2.70;;;;;;;12.61;77.59;98513.13;105854;1284;22598;-83
2022/07/11 03:02:59;;;;;;;6.30;2.70;;;;;;;12.63;77.68;98515.88;105945;1284;138034;-83
2022/07/11 03:05:26;;;;;;;6.30;2.90;;;;;;;12.62;77.61;98514.61;105802;1284;23302;-84
2022/07/11 03:07:59;;;;;;;4.90;1.90;;;;;;;12.61;77.79;98518.39;105889;1286;22826;-84
2022/07/11 03:10:26;;;;;;;4.60;1.90;;;;;;;12.61;77.94;98517.30;105679;1287;138866;-84
2022/07/11 03:12:55;;;;;;;7.10;2.20;;;;;;;12.62;77.58;98518.88;105718;1287;25478;-84
2022/07/11 03:15:22;;;;;;;5.20;2.70;;;;;;;12.65;77.78;98516.45;105530;1284;137979;-85
2022/07/11 03:17:53;;;;;;;10.60;2.40;;;;;;;12.65;77.84;98514.86;105705;1287;24311;-85
2022/07/11 03:20:21;;;;;;;7.20;2.50;;;;;;;12.65;77.63;98514.65;105437;1287;22563;-84
2022/07/11 03:22:48;;;;;;;6.10;2.80;;;;;;;12.66;78.04;98521.44;105535;1284;138018;-84
2022/07/11 03:25:14;;;;;;;5.70;2.40;;;;;;;12.65;77.60;98522.19;105848;1287;22617;-85
2022/07/11 03:27:42;;;;;;;5.00;2.50;;;;;;;12.65;77.88;98520.39;105940;1286;138608;-85
2022/07/11 03:30:10;;;;;;;6.00;3.10;;;;;;;12.66;77.97;98523.84;105582;1287;25368;-84
2022/07/11 03:32:41;;;;;;;4.30;2.80;;;;;;;12.68;78.32;98522.33;105827;1285;24124;-84
2022/07/11 03:37:55;;;;;;;4.10;2.40;;;;;;;12.69;78.07;98524.30;105956;1286;31997;-84
2022/07/11 03:40:25;;;;;;;8.30;3.50;;;;;;;12.68;78.12;98523.86;105769;1284;138760;-85
2022/07/11 03:42:55;;;;;;;10.80;3.50;;;;;;;12.69;78.25;98525.77;105781;1284;22826;-84
2022/07/11 03:45:22;;;;;;;8.10;3.40;;;;;;;12.71;78.23;98531.88;106136;1284;138085;-84
2022/07/11 03:47:49;;;;;;;7.40;2.60;;;;;;;12.72;78.00;98530.63;105696;1287;22713;-84
2022/07/11 03:50:24;;;;;;;6.30;2.50;;;;;;;12.71;78.05;98530.95;105687;1284;23036;-85
2022/07/11 03:52:56;;;;;;;7.80;2.80;;;;;;;12.72;78.23;98529.20;105835;1284;138986;-85
2022/07/11 03:55:27;;;;;;;7.30;2.80;;;;;;;12.74;78.19;98533.65;105790;1287;22606;-84
2022/07/11 03:58:01;;;;;;;5.80;2.60;;;;;;;12.74;78.30;98538.41;105533;1287;137642;-84
2022/07/11 04:00:28;;;;;;;7.70;3.00;;;;;;;12.74;78.56;98536.70;105615;1286;22580;-84
2022/07/11 04:02:55;;;;;;;5.20;3.20;;;;;;;12.72;78.45;98539.64;105575;1286;138495;-84
2022/07/11 04:05:22;;;;;;;4.30;3.00;;;;;;;12.72;78.78;98542.75;105500;1287;22554;-83
2022/07/11 04:07:49;;;;;;;6.00;2.80;;;;;;;12.77;78.66;98540.02;105949;1284;22577;-83
2022/07/11 04:10:25;;;;;;;6.50;3.10;;;;;;;12.82;78.90;98541.54;106102;1284;138085;-84
2022/07/11 04:12:55;;;;;;;5.60;3.10;;;;;;;12.83;78.60;98533.69;105803;1284;22572;-82
2022/07/11 04:15:22;;;;;;;5.00;3.00;;;;;;;12.87;78.67;98538.20;105714;1284;137796;-82
2022/07/11 04:17:51;;;;;;;9.10;3.40;;;;;;;12.92;79.02;98534.14;105662;1286;22711;-81
2022/07/11 04:20:27;;;;;;;7.50;3.30;;;;;;;12.93;78.77;98537.63;105666;1286;23154;-81
2022/07/11 04:22:54;;;;;;;5.10;2.60;;;;;;;12.96;79.09;98543.00;105446;1287;138636;-82
2022/07/11 04:25:21;;;;;;;9.10;3.40;;;;;;;12.97;78.88;98536.83;105872;1285;23934;-81
2022/07/11 04:27:48;;;;;;;9.40;3.00;;;;;;;12.97;78.90;98537.60;105711;1284;138500;-82
2022/07/11 04:30:15;;;;;;;7.90;3.60;;;;;;;12.97;79.09;98537.38;105717;1286;22604;-84
2022/07/11 04:32:45;;;;;;;13.40;3.50;;;;;;;12.97;79.29;98537.05;105683;1284;23010;-82
2022/07/11 04:35:11;;;;;;;8.10;3.20;;;;;;;13.01;79.42;98538.95;105316;1284;139030;-82
2022/07/11 04:37:41;;;;;;;11.30;3.80;;;;;;;13.07;79.16;98538.67;105584;1284;24345;-81
2022/07/11 04:40:11;;;;;;;8.70;4.20;;;;;;;13.12;79.05;98538.40;104627;1283;1529212;-82
2022/07/11 04:42:41;;;;;;;8.00;3.90;;;;;;;13.14;79.06;98540.10;105680;1284;22624;-83
2022/07/11 04:45:08;;;;;;;8.80;3.70;;;;;;;13.19;79.29;98541.67;105781;1284;138596;-83
2022/07/11 04:47:35;;;;;;;6.40;2.80;;;;;;;13.22;79.15;98536.91;105770;1285;22746;-83
2022/07/11 04:50:05;;;;;;;8.40;3.50;;;;;;;13.26;79.02;98536.38;105993;1283;22721;-83
2022/07/11 04:52:35;;;;;;;8.10;3.40;;;;;;;13.27;79.10;98538.79;105328;1288;137694;-83
2022/07/11 04:55:02;;;;;;;5.60;3.40;;;;;;;13.28;78.89;98545.81;105627;1285;22842;-83
2022/07/11 04:57:29;;;;;;;5.80;3.60;;;;;;;13.29;78.83;98543.85;105615;1284;138707;-85
2022/07/11 05:00:00;;;;;;;9.70;3.30;;;;;;;13.33;78.65;98542.60;105739;1286;22600;-84
2022/07/11 05:02:33;;;;;;;7.60;3.10;;;;;;;13.35;78.71;98547.27;105884;1284;24293;-84
2022/07/11 05:05:00;;;;;;;6.70;3.60;;;;;;;13.38;78.52;98547.66;105887;1284;138248;-84
2022/07/11 05:07:30;;;;;;;10.00;3.80;;;;;;;13.41;78.82;98548.19;106057;1284;22724;-84
2022/07/11 05:10:04;;;;;;;6.30;3.60;;;;;;;13.45;78.64;98550.85;105658;1285;137816;-84
2022/07/11 05:12:31;;;;;;;6.20;3.50;;;;;;;13.49;78.49;98552.13;105496;1285;24117;-84
2022/07/11 05:15:00;;;;;;;4.90;3.10;;;;;;;13.52;78.72;98549.25;105442;1285;138618;-83
2022/07/11 05:17:27;;;;;;;6.60;3.30;;;;;;;13.57;78.66;98547.70;105648;1285;25439;-85
2022/07/11 05:19:55;;;;;;;7.40;4.00;;;;;;;13.58;78.53;98542.25;105593;1286;32229;-84
2022/07/11 05:22:24;;;;;;;7.10;3.30;;;;;;;13.59;78.53;98544.39;105561;1285;137592;-86
2022/07/11 05:24:54;;;;;;;6.90;3.10;;;;;;;13.57;78.42;98541.52;105732;1287;24263;-85
2022/07/11 05:27:21;;;;;;;6.40;3.40;;;;;;;13.58;78.59;98542.68;105604;1286;138618;-86
2022/07/11 05:29:56;;;;;;;4.90;3.20;;;;;;;13.53;78.40;98543.58;105660;1284;30484;-86
2022/07/11 05:32:23;;;;;;;6.30;3.30;;;;;;;13.53;78.50;98547.52;105701;1286;22685;-83
2022/07/11 05:34:50;;;;;;;4.60;3.00;;;;;;;13.56;78.78;98549.50;105708;1284;137829;-84
2022/07/11 05:37:17;;;;;;;5.90;3.40;;;;;;;13.58;78.56;98555.98;105895;1284;22559;-84
2022/07/11 05:39:44;;;;;;;6.40;3.30;;;;;;;13.60;78.71;98554.24;106112;1284;138426;-84
2022/07/11 05:42:11;;;;;;;8.50;3.10;;;;;;;13.62;78.98;98558.42;106559;1284;22624;-86
2022/07/11 05:44:38;;;;;;;8.40;3.00;;;;;;;13.69;78.83;98559.45;105679;1286;22560;-84
2022/07/11 05:47:05;;;;;;;6.50;3.30;;;;;;;13.76;78.85;98566.61;105719;1284;23508;-85
2022/07/11 05:49:32;;;;;;;5.70;3.20;;;;;;;13.84;78.61;98565.58;105721;1284;22588;-86
2022/07/11 05:52:01;;;;;;;4.60;3.20;;;;;;;13.86;78.21;98566.46;105814;1286;138528;-86
2022/07/11 05:54:29;;;;;;;7.60;2.80;;;;;;;13.86;78.17;98571.73;105751;1285;22656;-87
2022/07/11 05:56:56;;;;;;;5.60;2.90;;;;;;;13.85;78.14;98573.41;105457;1286;22611;-84
2022/07/11 05:59:23;;;;;;;9.20;3.30;;;;;;;13.88;78.28;98575.95;105675;1284;138434;-87
2022/07/11 06:01:54;;;;;;;5.80;3.20;;;;;;;13.92;78.13;98570.61;105882;1284;22624;-85
2022/07/11 06:04:44;;;;;;;7.40;3.10;;;;;;;13.99;77.96;98570.92;105972;1284;137842;-84
2022/07/11 06:10:35;;;;;;;6.20;3.10;;;;;;;14.22;78.00;98567.17;106064;1285;137506;-88
2022/07/11 06:13:02;;;;;;;4.70;3.10;;;;;;;14.33;77.61;98568.25;105935;1286;25282;-83
2022/07/11 06:15:29;;;;;;;7.30;3.50;;;;;;;14.44;77.33;98570.88;105888;1285;139126;-84
2022/07/11 06:17:56;;;;;;;10.80;2.60;;;;;;;14.57;77.35;98571.08;105520;1285;23512;-84
2022/07/11 06:20:23;;;;;;;5.10;3.00;;;;;;;14.70;77.05;98567.11;105619;1285;25288;-85
2022/07/11 06:22:50;;;;;;;5.50;2.80;;;;;;;14.86;76.88;98563.21;105546;1285;137829;-86
2022/07/11 06:25:17;;;;;;;3.90;2.70;;;;;;;14.97;76.53;98564.27;105753;1285;22725;-86
2022/07/11 06:27:44;;;;;;;8.00;3.20;;;;;;;15.10;76.20;98562.05;105649;1285;138891;-86
2022/07/11 06:30:11;;;;;;;7.80;3.20;;;;;;;15.24;75.54;98565.58;105493;1284;24231;-90
2022/07/11 06:32:39;;;;;;;7.60;2.80;;;;;;;15.39;75.18;98561.21;105360;1284;22578;-87
2022/07/11 06:35:07;;;;;;;6.20;3.50;;;;;;;15.51;74.26;98559.11;105582;1284;137809;-84
2022/07/11 06:37:35;;;;;;;5.60;2.60;;;;;;;15.61;74.18;98553.67;105762;1284;22583;-78
2022/07/11 06:40:02;;;;;;;4.50;2.70;;;;;;;15.78;73.85;98555.77;105522;1286;140150;-83
2022/07/11 06:42:29;;;;;;;10.80;2.70;;;;;;;15.84;72.68;98556.48;105727;1285;23323;-86
2022/07/11 06:44:56;;;;;;;8.20;2.50;;;;;;;15.88;72.57;98556.59;105168;1287;22515;-84
2022/07/11 06:47:25;;;;;;;5.40;2.40;;;;;;;15.90;71.62;98559.60;105231;1285;137993;-85
2022/07/11 06:49:52;;;;;;;9.10;2.70;;;;;;;15.87;71.50;98561.04;105051;1286;22558;-85
2022/07/11 06:52:22;;;;;;;5.00;2.10;;;;;;;15.85;71.97;98558.91;105649;1286;137691;-84
2022/07/11 06:54:51;;;;;;;4.10;2.00;;;;;;;15.87;71.62;98560.92;105673;1284;24819;-83
2022/07/11 06:57:18;;;;;;;6.60;2.20;;;;;;;15.88;71.64;98563.66;105076;1285;138107;-83
2022/07/11 06:59:45;;;;;;;8.50;2.40;;;;;;;15.98;71.45;98562.66;105482;1285;23069;-84
2022/07/11 07:02:26;;;;;;;10.10;2.30;;;;;;;16.06;70.85;98563.52;105403;1285;25283;-84
2022/07/11 07:05:06;;;;;;;8.40;2.40;;;;;;;16.18;71.05;98561.73;105408;1285;137706;-81
2022/07/11 07:07:33;;;;;;;3.70;2.30;;;;;;;16.32;70.49;98557.73;105638;1285;25279;-80
2022/07/11 07:10:00;;;;;;;8.30;2.80;;;;;;;16.47;69.85;98556.36;105095;1284;138293;-84
2022/07/11 07:12:27;;;;;;;4.60;1.90;;;;;;;16.65;68.90;98554.02;105285;1287;23998;-83
2022/07/11 07:14:54;;;;;;;11.10;2.70;;;;;;;16.77;68.59;98553.46;105407;1286;22602;-82
2022/07/11 07:17:22;;;;;;;6.90;2.20;;;;;;;16.82;68.20;98548.92;105482;1284;138593;-83
2022/07/11 07:19:52;;;;;;;6.00;2.40;;;;;;;16.82;67.75;98549.05;105509;1284;22584;-82
2022/07/11 07:22:44;;;;;;;4.50;2.30;;;;;;;16.84;67.60;98547.84;105426;1285;138540;-82
2022/07/11 07:25:22;;;;;;;4.80;2.20;;;;;;;16.83;67.06;98545.14;105781;1285;24120;-81
2022/07/11 07:28:06;;;;;;;5.10;2.30;;;;;;;16.81;67.22;98547.62;105279;1285;137690;-80
2022/07/11 07:30:34;;;;;;;4.30;1.80;;;;;;;16.90;67.57;98548.87;105333;1284;22568;-82
2022/07/11 07:33:01;;;;;;;6.70;2.30;;;;;;;16.93;66.02;98547.14;105881;1284;25494;-82
2022/07/11 07:35:28;;;;;;;3.70;1.70;;;;;;;16.93;65.05;98544.55;105316;1285;137665;-83
2022/07/11 07:37:55;;;;;;;7.90;2.60;;;;;;;16.87;65.44;98541.55;105792;1283;22600;-81
2022/07/11 07:40:22;;;;;;;5.60;2.30;;;;;;;16.78;66.39;98538.06;105458;1285;141057;-79
2022/07/11 07:43:23;;;;;;;6.80;2.40;;;;;;;16.72;66.23;98543.31;105146;1285;22563;-80
2022/07/11 07:45:50;;;;;;;5.60;2.70;;;;;;;16.63;66.10;98542.98;105349;1285;137908;-80
2022/07/11 07:48:17;;;;;;;7.60;2.90;;;;;;;16.56;66.13;98542.40;105206;1285;22563;-80
2022/07/11 07:50:44;;;;;;;10.70;3.20;;;;;;;16.48;66.21;98545.46;105281;1286;22855;-80
2022/07/11 07:53:11;;;;;;;6.60;2.80;;;;;;;16.40;66.48;98545.73;106297;1285;140503;-81
2022/07/11 07:55:38;;;;;;;14.70;3.70;;;;;;;16.34;66.60;98540.69;106022;1284;22601;-80
2022/07/11 07:58:05;;;;;;;5.30;3.10;;;;;;;16.31;66.73;98536.90;106230;1285;137629;-81
2022/07/11 08:03:13;;;;;;;7.60;3.00;;;;;;;16.32;66.92;98534.91;105744;1284;30643;-81
2022/07/11 08:05:40;;;;;;;5.50;2.80;;;;;;;16.54;66.74;98531.26;105532;1284;25360;-81
2022/07/11 08:08:39;;;;;;;3.40;2.50;;;;;;;16.74;65.62;98521.73;105653;1284;24616;-82
2022/07/11 08:11:44;;;;;;;7.20;2.60;;;;;;;16.92;64.33;98515.50;105738;1284;25404;-81
2022/07/11 08:14:12;;;;;;;6.70;1.90;;;;;;;17.02;63.65;98512.91;105520;1285;24125;-81
2022/07/11 08:17:31;;;;;;;4.80;2.20;;;;;;;17.06;63.01;98509.25;105646;1285;137668;-82
2022/07/11 08:21:06;;;;;;;5.30;1.90;;;;;;;16.99;61.99;98509.23;105337;1285;24414;-82
2022/07/11 08:24:08;;;;;;;8.40;2.00;;;;;;;16.91;62.07;98509.30;105843;1284;30084;-82
2022/07/11 08:26:35;;;;;;;5.00;1.70;;;;;;;17.06;62.52;98505.34;105751;1284;22640;-82
2022/07/11 08:29:04;;;;;;;7.10;1.90;;;;;;;17.29;61.72;98500.26;105282;1284;137665;-81
2022/07/11 08:31:32;;;;;;;4.60;1.50;;;;;;;17.38;61.75;98489.67;105527;1284;24453;-81
2022/07/11 08:33:59;;;;;;;4.40;1.80;;;;;;;17.44;61.30;98481.91;105477;1286;137660;-82
2022/07/11 08:36:27;;;;;;;5.10;1.80;;;;;;;17.49;60.67;98478.62;105874;1285;24518;-82
2022/07/11 08:38:55;;;;;;;6.90;1.90;;;;;;;17.55;60.76;98477.68;105737;1286;22598;-82
2022/07/11 08:41:22;;;;;;;3.60;1.20;;;;;;;17.61;60.12;98473.27;105855;1285;137964;-83
2022/07/11 08:43:50;;;;;;;5.20;1.30;;;;;;;17.68;59.96;98471.49;105326;1286;22603;-82
2022/07/11 08:46:20;;;;;;;5.60;1.60;;;;;;;17.70;59.95;98467.52;106148;1284;137673;-83
2022/07/11 08:48:48;;;;;;;5.30;1.80;;;;;;;17.73;59.67;98464.66;105810;1284;22559;-81
2022/07/11 08:51:15;;;;;;;3.50;1.50;;;;;;;17.80;59.42;98463.97;105557;1284;137854;-84
2022/07/11 08:53:46;;;;;;;5.60;1.60;;;;;;;17.78;57.72;98464.10;105556;1285;22560;-83
2022/07/11 08:56:17;;;;;;;3.80;1.60;;;;;;;17.89;57.39;98456.35;105362;1285;22677;-83
2022/07/11 08:58:48;;;;;;;5.10;1.50;;;;;;;18.09;56.81;98451.92;105227;1285;137620;-84
2022/07/11 09:01:17;;;;;;;6.40;1.60;;;;;;;18.30;54.70;98448.24;105796;1285;25518;-82
2022/07/11 09:03:44;;;;;;;;;;;;;;;18.56;54.47;98447.79;105590;1285;137730;-84
2022/07/11 09:06:13;;;;;;;7.40;1.60;;;;;;;18.88;54.23;98447.38;105963;1285;25514;-84
2022/07/11 09:08:40;;;;;;;4.00;1.20;;;;;;;19.23;53.16;98448.53;105662;1285;22599;-82
2022/07/11 09:11:08;;;;;;;5.10;1.30;;;;;;;19.34;51.99;98445.09;105577;1285;137532;-84
2022/07/11 09:13:36;;;;;;;4.50;0.90;;;;;;;19.15;50.48;98456.40;105745;1284;22579;-84
2022/07/11 09:16:05;;;;;;;;;;;;;;;18.76;49.69;98463.33;105343;1284;137700;-84
2022/07/11 09:18:37;;;;;;;4.50;1.10;;;;;;;18.29;49.20;98468.61;105652;1284;22702;-86
2022/07/11 09:26:42;;;;;;;2.10;1.10;;;;;;;17.01;54.14;98465.27;106027;1284;22739;-84
2022/07/11 09:29:20;;;;;;;6.60;1.50;;;;;;;16.80;55.40;98466.48;106059;1285;137586;-83
2022/07/11 09:31:56;;;;;;;;;;;;;;;16.69;55.78;98463.04;106309;1285;25370;-83
2022/07/11 09:35:01;;;;;;;5.30;1.30;;;;;;;16.67;56.19;98460.59;105927;1286;124791;-84
2022/07/11 09:37:53;;;;;;;2.80;1.20;;;;;;;16.73;56.75;98460.75;106050;1284;22793;-83
2022/07/11 09:40:25;;;;;;;5.80;1.40;;;;;;;16.77;57.51;98459.46;106146;1284;137826;-82
2022/07/11 09:42:54;;;;;;;6.90;1.30;;;;;;;16.97;57.08;98460.61;105936;1284;22732;-83
2022/07/11 09:45:24;;;;;;;6.00;1.20;;;;;;;17.39;56.96;98450.25;106060;1284;138255;-83
2022/07/11 09:48:10;;;;;;;2.00;1.00;;;;;;;17.98;56.72;98445.61;106669;1284;23239;-84
2022/07/11 09:50:39;;;;;;;2.60;0.90;;;;;;;18.67;55.51;98442.43;106431;1286;24443;-84
2022/07/11 09:53:16;;;;;;;2.70;0.90;;;;;;;19.15;51.68;98441.83;105698;1287;137951;-86
2022/07/11 09:55:46;;;;;;;7.40;0.90;;;;;;;19.23;48.84;98435.06;106615;1285;23369;-84
2022/07/11 09:58:16;;;;;;;3.30;0.50;;;;;;;19.50;49.29;98463.96;106322;1285;138430;-89
2022/07/11 10:00:46;;;;;;;2.50;0.60;;;;;;;19.20;48.65;98481.26;106380;1285;23333;-85
2022/07/11 10:03:14;;;;;;;2.80;0.70;;;;;;;18.33;48.32;98487.80;106364;1285;24234;-83
2022/07/11 10:05:42;;;;;;;2.60;0.40;;;;;;;17.51;49.92;98484.38;105756;1285;24340;-85
2022/07/11 10:08:25;;;;;;;2.10;0.90;;;;;;;16.92;51.52;98484.64;106079;1285;22748;-85
2022/07/11 10:10:53;;;;;;;0.60;0.30;;;;;;;16.60;53.08;98489.16;105701;1285;137712;-86
2022/07/11 10:13:21;;;;;;;1.60;0.40;;;;;;;16.57;53.97;98486.59;105684;1284;23153;-85
2022/07/11 10:15:49;;;;;;;0.60;0.40;;;;;;;16.44;53.50;98482.54;105875;1285;137865;-83
2022/07/11 10:18:36;;;;;;;1.20;0.20;;;;;;;16.16;54.47;98479.31;105903;1284;25331;-78
2022/07/11 10:21:41;;;;;;;2.70;0.60;;;;;;;15.69;59.00;98494.54;105716;1285;23057;-77
2022/07/11 10:24:40;;;;;;;;;;;;;;;15.11;61.86;98496.02;105935;1284;25319;-79
2022/07/11 10:27:55;;;;;;;1.30;0.50;;;;;;;14.84;62.52;98487.05;105726;1285;26155;-79
2022/07/11 10:30:49;;;;;;;1.90;0.40;;;;;;;14.70;63.66;98484.11;105558;1285;25368;-83
2022/07/11 10:33:17;;;;;;;2.40;0.30;;;;;;;14.69;64.26;98483.46;105743;1285;138233;-81
2022/07/11 10:35:46;;;;;;;1.70;0.30;;;;;;;14.72;65.26;98483.62;106083;1285;22615;-81
2022/07/11 10:38:17;;;;;;;0.60;0.40;;;;;;;14.76;65.20;98487.58;105512;1286;25373;-81
2022/07/11 10:44:57;;;;;;;1.10;0.40;;;;;;;14.91;63.76;98484.36;106391;1284;22693;-80
2022/07/11 10:51:37;;;;;;;0.50;0.50;;;;;;;15.16;64.82;98481.47;105946;1285;138783;-80
2022/07/11 10:54:37;;;;;;;0.60;0.40;;;;;;;15.34;64.10;98482.77;105944;1285;22591;-79
2022/07/11 10:57:36;;;;;;;1.90;0.50;;;;;;;15.55;64.24;98482.76;107326;1285;22599;-81
2022/07/11 11:00:33;;;;;;;1.60;0.50;;;;;;;15.90;63.20;98485.67;108302;1284;22528;-80
2022/07/11 11:03:06;;;;;;;1.50;0.60;;;;;;;16.17;63.32;98485.30;108569;1284;22539;-81
2022/07/11 11:05:54;;;;;;;1.20;0.50;;;;;;;16.43;62.91;98488.09;107144;1284;137276;-80
2022/07/11 11:08:51;;;;;;;1.70;0.90;;;;;;;16.72;63.10;98492.44;108322;1284;24046;-81
2022/07/11 11:11:50;;;;;;;2.80;0.70;;;;;;;17.16;62.30;98493.16;108354;1284;22553;-80
2022/07/11 11:15:31;;;;;;;2.10;0.90;;;;;;;17.37;58.35;98494.09;108515;1284;23445;-80
2022/07/11 11:22:16;;;;;;;0.60;0.50;;;;;;;16.72;57.54;98527.38;105539;1284;137710;-82
2022/07/11 11:24:44;;;;;;;1.20;0.30;;;;;;;16.20;58.52;98542.33;106093;1284;25517;-85
2022/07/11 11:27:34;;;;;;;1.00;0.70;;;;;;;15.68;60.35;98548.40;106017;1286;24443;-80
2022/07/11 11:30:05;;;;;;;0.80;0.50;;;;;;;15.15;62.78;98554.65;106345;1285;22240;-79
2022/07/11 11:33:36;;;;;;;1.50;0.40;;;;;;;14.72;64.72;98558.01;106153;1286;24243;-76
2022/07/11 11:36:33;;;;;;;1.80;0.50;;;;;;;14.08;68.34;98549.73;105534;1284;22813;-77
2022/07/11 11:39:00;;;;;;;0.70;0.50;;;;;;;13.82;70.57;98557.23;105691;1286;22593;-78
2022/07/11 11:41:31;;;;;;;1.10;0.40;;;;;;;13.65;71.82;98552.58;105623;1286;138676;-81
2022/07/11 11:44:03;;;;;;;2.10;0.50;;;;;;;13.57;72.63;98546.28;105490;1284;22631;-80
2022/07/11 11:46:35;;;;;;;2.20;0.80;;;;;;;13.48;72.98;98546.00;105323;1285;138126;-79
2022/07/11 11:49:04;;;;;;;2.90;0.70;;;;;;;13.46;73.72;98546.20;105233;1287;22843;-79
2022/07/11 11:51:32;;;;;;;3.40;0.60;;;;;;;13.61;74.10;98543.79;106281;1285;137971;-80
2022/07/11 11:54:02;;;;;;;2.70;0.80;;;;;;;13.82;73.92;98546.57;106615;1285;25243;-80
2022/07/11 11:56:33;;;;;;;;;;;;;;;14.08;74.61;98546.66;106249;1285;25507;-81
2022/07/11 11:59:02;;;;;;;1.30;0.50;;;;;;;14.34;74.04;98541.41;106063;1284;124121;-81
2022/07/11 12:01:56;;;;;;;1.50;0.60;;;;;;;14.60;73.30;98537.08;105885;1286;23168;-81
2022/07/11 12:04:51;;;;;;;2.50;1.00;;;;;;;14.89;72.13;98537.17;105714;1284;137521;-82
2022/07/11 12:11:19;;;;;;;2.50;0.50;;;;;;;15.18;71.24;98543.36;105551;1287;137790;-81
2022/07/11 12:13:46;;;;;;;2.00;0.60;;;;;;;15.29;71.25;98546.16;105462;1287;24443;-81
2022/07/11 12:19:00;;;;;;;0.80;0.60;;;;;;;15.57;71.01;98539.56;106041;1286;22729;-81
2022/07/11 12:21:29;;;;;;;0.70;0.50;;;;;;;15.75;71.06;98535.45;105212;1284;137720;-81